Time;durP1;ratioP1;P1;durP2;ratioP2;P2;SDS_P1;SDS_P2;PMS_P1;PMS_P2;Temp;Humidity;BMP_temperature;BMP_pressure;BME280_temperature;BME280_humidity;BME280_pressure;Samples;Min_cycle;Max_cycle;Signal;HPM_P1;HPM_P2
2023/04/18 00:00:50;;;;;;;17.60;6.93;;;8.90;99.90;;;;;;5041711;28;20087;-71
2023/04/18 00:03:16;;;;;;;17.60;6.85;;;8.90;99.90;;;;;;5045419;28;20049;-71
2023/04/18 00:05:42;;;;;;;14.18;6.55;;;8.80;99.90;;;;;;5033212;28;20139;-70
2023/04/18 00:08:11;;;;;;;15.00;6.70;;;8.80;99.90;;;;;;5038289;28;20563;-70
2023/04/18 00:10:40;;;;;;;13.55;5.78;;;8.80;99.90;;;;;;5037153;28;20028;-70
2023/04/18 00:13:12;;;;;;;12.27;5.88;;;8.80;99.90;;;;;;5027872;28;20034;-71
2023/04/18 00:15:42;;;;;;;13.82;6.07;;;8.80;99.90;;;;;;5069770;28;20178;-69
2023/04/18 00:18:09;;;;;;;12.25;6.10;;;8.80;99.90;;;;;;5033721;28;20029;-72
2023/04/18 00:20:38;;;;;;;17.35;5.68;;;8.80;99.90;;;;;;5041853;28;20036;-71
2023/04/18 00:23:05;;;;;;;17.60;5.72;;;8.70;99.90;;;;;;5035639;28;20087;-71
2023/04/18 00:25:33;;;;;;;11.40;5.68;;;8.70;99.90;;;;;;5029097;28;20128;-72
2023/04/18 00:27:59;;;;;;;11.00;5.82;;;8.70;99.90;;;;;;5032369;28;20033;-71
2023/04/18 00:30:28;;;;;;;13.57;5.65;;;8.70;99.90;;;;;;5037922;28;20040;-71
2023/04/18 00:32:56;;;;;;;14.73;5.25;;;8.60;99.90;;;;;;5035160;28;20056;-71
2023/04/18 00:35:25;;;;;;;10.82;4.85;;;8.60;99.90;;;;;;5033837;28;20041;-70
2023/04/18 00:37:51;;;;;;;11.00;5.20;;;8.70;99.90;;;;;;5035134;28;20068;-71
2023/04/18 00:40:16;;;;;;;10.00;4.85;;;8.60;99.90;;;;;;5028139;28;20083;-71
2023/04/18 00:42:43;;;;;;;9.65;5.00;;;8.60;99.90;;;;;;5038021;28;20033;-70
2023/04/18 00:45:11;;;;;;;14.15;4.97;;;8.60;99.90;;;;;;5030085;28;20025;-71
2023/04/18 00:47:37;;;;;;;10.50;4.75;;;8.60;99.90;;;;;;5039615;28;20044;-71
2023/04/18 00:50:03;;;;;;;10.10;4.63;;;8.50;99.90;;;;;;5043696;28;20028;-70
2023/04/18 00:52:28;;;;;;;10.88;4.65;;;8.50;99.90;;;;;;5037078;28;20064;-70
2023/04/18 00:54:54;;;;;;;32.42;4.82;;;8.40;99.90;;;;;;5032301;28;20033;-70
2023/04/18 00:57:21;;;;;;;14.20;4.72;;;8.40;99.90;;;;;;5034189;28;20410;-71
2023/04/18 00:59:53;;;;;;;14.13;4.35;;;8.40;99.90;;;;;;5031309;28;20036;-71
2023/04/18 01:02:22;;;;;;;12.43;4.60;;;8.40;99.90;;;;;;5033595;28;20045;-70
2023/04/18 01:04:47;;;;;;;8.93;4.25;;;8.40;99.90;;;;;;5031091;28;20056;-71
2023/04/18 01:07:13;;;;;;;8.90;4.05;;;8.30;99.90;;;;;;5032980;28;20084;-71
2023/04/18 01:09:39;;;;;;;9.00;3.65;;;8.30;99.90;;;;;;5031639;28;20036;-70
2023/04/18 01:12:08;;;;;;;8.90;4.07;;;8.30;99.90;;;;;;5034470;28;20049;-71
2023/04/18 01:14:46;;;;;;;9.48;4.47;;;8.30;99.90;;;;;;5041444;28;20125;-69
2023/04/18 01:17:12;;;;;;;9.45;4.22;;;8.20;99.90;;;;;;5037426;28;20051;-71
2023/04/18 01:19:38;;;;;;;9.13;3.90;;;8.20;99.90;;;;;;5036483;28;20645;-71
2023/04/18 01:22:07;;;;;;;12.90;4.43;;;8.10;99.90;;;;;;5028699;28;20580;-70
2023/04/18 01:24:35;;;;;;;6.60;3.58;;;8.10;99.90;;;;;;5047779;28;20942;-71
2023/04/18 01:27:02;;;;;;;7.65;3.65;;;8.10;99.90;;;;;;5036706;28;20052;-73
2023/04/18 01:29:27;;;;;;;7.47;3.70;;;8.00;99.90;;;;;;5034209;28;20100;-72
2023/04/18 01:31:53;;;;;;;8.30;4.30;;;8.00;99.90;;;;;;5037151;28;20108;-70
2023/04/18 01:34:19;;;;;;;11.52;3.75;;;8.00;99.90;;;;;;5030156;28;20045;-71
2023/04/18 01:36:45;;;;;;;11.23;4.82;;;8.00;99.90;;;;;;5030710;28;20040;-69
2023/04/18 01:39:11;;;;;;;12.80;3.83;;;7.80;99.90;;;;;;5032133;28;20651;-74
2023/04/18 01:41:37;;;;;;;9.30;3.53;;;7.90;99.90;;;;;;5033539;28;20068;-69
2023/04/18 01:44:03;;;;;;;9.52;3.33;;;7.80;99.90;;;;;;5030973;28;20052;-71
2023/04/18 01:46:29;;;;;;;5.78;2.88;;;7.70;99.90;;;;;;5030899;28;20037;-71
2023/04/18 01:48:55;;;;;;;8.82;3.80;;;7.80;99.90;;;;;;5041783;28;20029;-71
2023/04/18 01:51:27;;;;;;;8.77;3.00;;;7.70;99.90;;;;;;5034415;28;20051;-70
2023/04/18 01:53:55;;;;;;;8.57;3.17;;;7.70;99.90;;;;;;5032994;28;20037;-71
2023/04/18 01:56:21;;;;;;;8.18;3.28;;;7.70;99.90;;;;;;5032012;28;20048;-71
2023/04/18 01:58:47;;;;;;;9.55;3.38;;;7.60;99.90;;;;;;5030856;28;20045;-70
2023/04/18 02:01:15;;;;;;;10.63;4.60;;;7.70;99.90;;;;;;5037426;28;20028;-69
2023/04/18 02:03:44;;;;;;;17.63;3.60;;;7.70;99.90;;;;;;5040859;28;20091;-69
2023/04/18 02:06:12;;;;;;;9.23;2.72;;;7.60;99.90;;;;;;5026720;28;20069;-70
2023/04/18 02:08:41;;;;;;;5.68;3.22;;;7.60;99.90;;;;;;5031455;28;20116;-69
2023/04/18 02:11:06;;;;;;;6.18;3.05;;;7.50;99.90;;;;;;5028088;28;20021;-71
2023/04/18 02:13:32;;;;;;;7.82;3.38;;;7.50;99.90;;;;;;5041755;28;20040;-71
2023/04/18 02:15:58;;;;;;;8.48;3.25;;;7.40;99.90;;;;;;5034748;28;20029;-71
2023/04/18 02:18:25;;;;;;;5.93;2.83;;;7.50;99.90;;;;;;5031789;28;20450;-70
2023/04/18 02:20:54;;;;;;;7.88;3.22;;;7.40;99.90;;;;;;5034430;28;20069;-70
2023/04/18 02:23:26;;;;;;;9.02;3.35;;;7.40;99.90;;;;;;5036934;28;20039;-70
2023/04/18 02:25:54;;;;;;;7.22;3.20;;;7.40;99.90;;;;;;5038924;28;20115;-70
2023/04/18 02:28:20;;;;;;;8.25;3.05;;;7.40;99.90;;;;;;5027163;28;20511;-69
2023/04/18 02:30:48;;;;;;;5.68;3.13;;;7.40;99.90;;;;;;5028991;28;20029;-70
2023/04/18 02:33:14;;;;;;;6.72;3.15;;;7.40;99.90;;;;;;5029708;28;20021;-71
2023/04/18 02:35:43;;;;;;;9.68;3.13;;;7.30;99.90;;;;;;5033208;28;20385;-70
2023/04/18 02:38:09;;;;;;;8.02;3.30;;;7.30;99.90;;;;;;5046055;28;20029;-69
2023/04/18 02:40:40;;;;;;;8.65;3.75;;;7.30;99.90;;;;;;5033342;28;20144;-70
2023/04/18 02:43:11;;;;;;;5.95;2.88;;;7.20;99.90;;;;;;5027616;28;20489;-71
2023/04/18 02:45:37;;;;;;;6.55;3.33;;;7.30;99.90;;;;;;5034176;28;20394;-71
2023/04/18 02:48:03;;;;;;;8.77;3.55;;;7.20;99.90;;;;;;5039112;28;20148;-69
2023/04/18 02:50:28;;;;;;;6.97;3.05;;;7.20;99.90;;;;;;5037859;28;20041;-71
2023/04/18 02:53:00;;;;;;;7.38;3.03;;;7.20;99.90;;;;;;5035087;28;20032;-71
2023/04/18 02:55:26;;;;;;;8.80;2.88;;;7.20;99.90;;;;;;5028373;28;20041;-71
2023/04/18 02:57:51;;;;;;;8.73;3.60;;;7.20;99.90;;;;;;5030026;28;20385;-71
2023/04/18 03:00:17;;;;;;;5.13;3.00;;;7.20;99.90;;;;;;5035649;28;20516;-72
2023/04/18 03:02:45;;;;;;;10.10;3.58;;;7.20;99.90;;;;;;5031116;28;20033;-71
2023/04/18 03:05:11;;;;;;;8.05;3.22;;;7.20;99.90;;;;;;5035030;28;20033;-72
2023/04/18 03:07:36;;;;;;;5.68;3.10;;;7.20;99.90;;;;;;5038032;28;20045;-70
2023/04/18 03:10:02;;;;;;;11.50;3.53;;;7.30;99.90;;;;;;5029942;28;20512;-69
2023/04/18 03:12:28;;;;;;;10.98;3.70;;;7.20;99.90;;;;;;5034489;28;20053;-69
2023/04/18 03:14:56;;;;;;;8.90;4.55;;;7.20;99.90;;;;;;5030160;28;20124;-71
2023/04/18 03:17:22;;;;;;;8.18;3.85;;;7.20;99.90;;;;;;5031397;28;20061;-72
2023/04/18 03:19:48;;;;;;;7.53;4.07;;;7.10;99.90;;;;;;5029917;28;20116;-71
2023/04/18 03:22:14;;;;;;;9.05;3.53;;;7.10;99.90;;;;;;5026443;28;20030;-71
2023/04/18 03:24:43;;;;;;;8.60;3.45;;;7.10;99.90;;;;;;5024806;28;20025;-71
2023/04/18 03:27:08;;;;;;;10.32;3.40;;;7.10;99.90;;;;;;5022341;28;20429;-70
2023/04/18 03:29:40;;;;;;;12.85;4.15;;;7.00;99.90;;;;;;5024801;28;20029;-71
2023/04/18 03:32:06;;;;;;;9.27;3.67;;;7.00;99.90;;;;;;5028389;28;20025;-70
2023/04/18 03:34:31;;;;;;;9.68;3.30;;;7.00;99.90;;;;;;5036386;28;20034;-71
2023/04/18 03:37:03;;;;;;;7.65;3.58;;;7.00;99.90;;;;;;5029004;28;20037;-71
2023/04/18 03:39:31;;;;;;;8.43;3.47;;;6.80;99.90;;;;;;5029617;28;20746;-71
2023/04/18 03:42:00;;;;;;;10.40;3.88;;;6.80;99.90;;;;;;5029274;28;20045;-71
2023/04/18 03:44:26;;;;;;;9.43;4.28;;;6.90;99.90;;;;;;5031444;28;20437;-69
2023/04/18 03:46:56;;;;;;;9.15;3.92;;;6.80;99.90;;;;;;5034431;28;20124;-70
2023/04/18 03:49:21;;;;;;;11.85;4.10;;;6.70;99.90;;;;;;5031073;28;20041;-71
2023/04/18 03:51:53;;;;;;;7.78;3.58;;;6.70;99.90;;;;;;5028529;28;20370;-71
2023/04/18 03:54:19;;;;;;;9.50;3.83;;;6.70;99.90;;;;;;5028150;28;20057;-71
2023/04/18 03:56:44;;;;;;;10.82;4.80;;;6.60;99.90;;;;;;5034496;28;20140;-70
2023/04/18 03:59:10;;;;;;;9.10;4.07;;;6.60;99.90;;;;;;5025785;28;20041;-71
2023/04/18 04:01:37;;;;;;;13.10;3.95;;;6.60;99.90;;;;;;5033596;28;20853;-71
2023/04/18 04:04:03;;;;;;;7.93;4.18;;;6.60;99.90;;;;;;5034875;28;20701;-71
2023/04/18 04:06:30;;;;;;;13.07;4.30;;;6.60;99.90;;;;;;5033448;28;20493;-70
2023/04/18 04:08:55;;;;;;;14.48;4.40;;;6.50;99.90;;;;;;5039063;28;20060;-71
2023/04/18 04:11:21;;;;;;;7.13;4.10;;;6.50;99.90;;;;;;5032241;28;20037;-69
2023/04/18 04:13:50;;;;;;;15.95;5.28;;;6.50;99.90;;;;;;5033380;28;20057;-71
2023/04/18 04:16:15;;;;;;;8.80;3.95;;;6.50;99.90;;;;;;5033087;28;20027;-69
2023/04/18 04:18:44;;;;;;;11.43;4.15;;;6.50;99.90;;;;;;5030868;28;20481;-71
2023/04/18 04:21:10;;;;;;;16.80;4.45;;;6.50;99.90;;;;;;5031011;28;20510;-70
2023/04/18 04:23:35;;;;;;;9.48;4.63;;;6.50;99.90;;;;;;5033847;28;20065;-71
2023/04/18 04:26:04;;;;;;;8.18;3.35;;;6.40;99.90;;;;;;5028992;28;20036;-71
2023/04/18 04:28:30;;;;;;;9.82;3.95;;;6.40;99.90;;;;;;5026052;28;20111;-68
2023/04/18 04:30:56;;;;;;;11.80;4.50;;;6.30;99.90;;;;;;5022575;28;20544;-71
2023/04/18 04:33:27;;;;;;;10.75;3.97;;;6.30;99.90;;;;;;5022258;28;20918;-71
2023/04/18 04:35:53;;;;;;;11.43;4.82;;;6.40;99.90;;;;;;5038168;28;20033;-71
2023/04/18 04:38:21;;;;;;;9.88;4.50;;;6.40;99.90;;;;;;5032874;28;20041;-71
2023/04/18 04:40:51;;;;;;;12.63;4.63;;;6.40;99.90;;;;;;5038505;28;20112;-71
2023/04/18 04:43:19;;;;;;;11.18;4.68;;;6.50;99.90;;;;;;5031834;28;20076;-70
2023/04/18 04:45:48;;;;;;;10.52;3.85;;;6.50;99.90;;;;;;5035587;28;20041;-71
2023/04/18 04:48:14;;;;;;;8.77;4.15;;;6.50;99.90;;;;;;5037248;28;20025;-71
2023/04/18 04:50:40;;;;;;;10.20;4.35;;;6.60;99.90;;;;;;5038743;28;20032;-71
2023/04/18 04:53:07;;;;;;;7.97;3.88;;;6.60;99.90;;;;;;5032507;28;20030;-71
2023/04/18 04:55:33;;;;;;;15.35;5.32;;;6.70;99.90;;;;;;5033162;28;20045;-71
2023/04/18 04:57:59;;;;;;;15.15;4.35;;;6.70;99.90;;;;;;5033013;28;20058;-70
2023/04/18 05:00:25;;;;;;;10.15;4.32;;;6.70;99.90;;;;;;5026658;28;20036;-71
2023/04/18 05:02:53;;;;;;;9.77;4.18;;;6.70;99.90;;;;;;5036238;28;20114;-71
2023/04/18 05:05:18;;;;;;;11.55;4.97;;;6.70;99.90;;;;;;5031935;28;20802;-70
2023/04/18 05:07:44;;;;;;;13.38;5.15;;;6.80;99.90;;;;;;5034818;28;20124;-70
2023/04/18 05:10:10;;;;;;;12.18;4.68;;;6.80;99.90;;;;;;5042052;28;20637;-71
2023/04/18 05:12:35;;;;;;;9.02;4.07;;;6.80;99.90;;;;;;5033661;28;20037;-71
2023/04/18 05:15:01;;;;;;;7.05;4.00;;;6.90;99.90;;;;;;5040577;28;20132;-70
2023/04/18 05:17:27;;;;;;;13.43;4.53;;;6.90;99.90;;;;;;5037482;28;20795;-70
2023/04/18 05:19:55;;;;;;;13.70;4.95;;;6.90;99.90;;;;;;5034611;28;20052;-70
2023/04/18 05:22:21;;;;;;;13.07;4.85;;;6.80;99.90;;;;;;5040571;28;20863;-70
2023/04/18 05:24:47;;;;;;;12.25;4.88;;;6.80;99.90;;;;;;5043465;28;20480;-71
2023/04/18 05:27:15;;;;;;;11.27;4.60;;;6.90;99.90;;;;;;5033463;28;20047;-71
2023/04/18 05:29:46;;;;;;;16.65;5.55;;;6.90;99.90;;;;;;5039339;28;20033;-70
2023/04/18 05:32:11;;;;;;;13.45;5.35;;;7.00;99.90;;;;;;5037307;28;20043;-72
2023/04/18 05:34:43;;;;;;;8.38;4.30;;;7.00;99.90;;;;;;5042542;28;20029;-71
2023/04/18 05:37:08;;;;;;;11.77;4.78;;;7.10;99.90;;;;;;5038169;28;20033;-71
2023/04/18 05:39:34;;;;;;;11.55;4.75;;;7.00;99.90;;;;;;5039025;28;21190;-72
2023/04/18 05:42:03;;;;;;;10.02;5.32;;;7.00;99.90;;;;;;5033632;28;20789;-70
2023/04/18 05:44:29;;;;;;;8.73;4.80;;;7.10;99.90;;;;;;5030586;28;20032;-69
2023/04/18 05:46:54;;;;;;;11.32;4.75;;;7.10;99.90;;;;;;5042243;28;20033;-70
2023/04/18 05:49:20;;;;;;;9.18;4.63;;;7.10;99.90;;;;;;5039828;28;20040;-68
2023/04/18 05:51:48;;;;;;;12.60;5.40;;;7.10;99.90;;;;;;5033524;28;20098;-70
2023/04/18 05:54:15;;;;;;;10.55;4.47;;;7.10;99.90;;;;;;5037227;28;20028;-71
2023/04/18 05:56:47;;;;;;;7.82;4.13;;;7.20;99.90;;;;;;5036083;28;20041;-70
2023/04/18 05:59:12;;;;;;;12.15;4.65;;;7.30;99.90;;;;;;5038319;28;20063;-73
2023/04/18 06:01:38;;;;;;;9.52;4.15;;;7.30;99.90;;;;;;5037224;28;20120;-71
2023/04/18 06:04:04;;;;;;;9.05;3.75;;;7.30;99.90;;;;;;5032808;28;20862;-69
2023/04/18 06:06:39;;;;;;;10.25;4.65;;;7.30;99.90;;;;;;5035308;28;20086;-71
2023/04/18 06:09:05;;;;;;;10.45;3.92;;;7.30;99.90;;;;;;5037895;28;20052;-70
2023/04/18 06:11:34;;;;;;;18.38;5.47;;;7.30;99.90;;;;;;5036008;28;20063;-70
2023/04/18 06:14:00;;;;;;;10.52;4.13;;;7.40;99.90;;;;;;5034643;28;20035;-71
2023/04/18 06:16:26;;;;;;;8.15;4.03;;;7.40;99.90;;;;;;5037356;28;20040;-69
2023/04/18 06:18:51;;;;;;;10.15;4.68;;;7.50;99.90;;;;;;5037976;28;20036;-71
2023/04/18 06:21:17;;;;;;;9.98;4.72;;;7.50;99.90;;;;;;5033817;28;20066;-69
2023/04/18 06:23:42;;;;;;;12.43;4.25;;;7.60;99.90;;;;;;5034008;28;20036;-72
2023/04/18 06:26:08;;;;;;;13.18;4.40;;;7.60;99.90;;;;;;5034237;28;20641;-70
2023/04/18 06:28:34;;;;;;;12.98;4.30;;;7.70;99.90;;;;;;5034571;28;20045;-69
2023/04/18 06:31:00;;;;;;;8.55;4.45;;;7.70;99.90;;;;;;5039484;28;20021;-71
2023/04/18 06:33:25;;;;;;;11.23;4.47;;;7.80;99.90;;;;;;5030774;28;20040;-71
2023/04/18 06:35:51;;;;;;;9.82;4.95;;;7.80;99.90;;;;;;5035196;28;20513;-70
2023/04/18 06:38:17;;;;;;;11.10;5.47;;;7.80;99.90;;;;;;5033401;28;20382;-70
2023/04/18 06:40:42;;;;;;;9.10;4.38;;;7.90;99.90;;;;;;5032337;28;20037;-69
2023/04/18 06:43:08;;;;;;;7.85;4.20;;;7.90;99.90;;;;;;5036882;28;20052;-70
2023/04/18 06:45:34;;;;;;;10.68;5.05;;;7.90;99.90;;;;;;5034135;28;20853;-72
2023/04/18 06:48:02;;;;;;;10.48;4.45;;;7.80;99.90;;;;;;5039019;28;20048;-71
2023/04/18 06:50:28;;;;;;;10.55;4.38;;;7.90;99.90;;;;;;5038339;28;20475;-71
2023/04/18 06:52:54;;;;;;;11.80;4.25;;;8.00;99.90;;;;;;5036911;28;20052;-70
2023/04/18 06:55:20;;;;;;;11.52;5.07;;;8.10;99.90;;;;;;5032416;28;20029;-70
2023/04/18 06:57:46;;;;;;;7.53;3.70;;;8.20;99.90;;;;;;5036393;28;20044;-71
2023/04/18 07:00:15;;;;;;;8.85;4.10;;;8.40;99.90;;;;;;5031682;28;20124;-71
2023/04/18 07:02:40;;;;;;;6.60;3.90;;;8.50;99.90;;;;;;5032557;28;20036;-70
2023/04/18 07:05:07;;;;;;;10.23;4.07;;;8.70;99.90;;;;;;5037103;28;20045;-69
2023/04/18 07:07:33;;;;;;;8.30;3.85;;;8.80;99.90;;;;;;5038803;28;20062;-71
2023/04/18 07:09:59;;;;;;;10.68;4.07;;;8.90;99.90;;;;;;5037643;28;20749;-77
2023/04/18 07:12:26;;;;;;;9.73;3.72;;;9.00;99.90;;;;;;5035654;28;20457;-71
2023/04/18 07:14:52;;;;;;;9.32;4.43;;;9.20;99.90;;;;;;5033442;28;20047;-73
2023/04/18 07:17:17;;;;;;;9.48;3.67;;;9.20;99.90;;;;;;5032918;28;20041;-71
2023/04/18 07:19:43;;;;;;;17.30;4.28;;;9.20;99.90;;;;;;5036978;28;20036;-71
2023/04/18 07:22:09;;;;;;;7.20;3.83;;;9.30;99.90;;;;;;5036522;28;20505;-70
2023/04/18 07:24:35;;;;;;;8.80;3.22;;;9.40;99.90;;;;;;5031022;28;20033;-70
2023/04/18 07:27:02;;;;;;;10.95;3.80;;;9.40;99.90;;;;;;5035027;28;20433;-72
2023/04/18 07:29:30;;;;;;;8.27;3.30;;;9.40;99.90;;;;;;5029479;28;20064;-69
2023/04/18 07:31:56;;;;;;;7.00;3.67;;;9.30;99.90;;;;;;5035272;28;20033;-71
2023/04/18 07:34:22;;;;;;;7.75;3.65;;;9.30;99.90;;;;;;5031570;28;20036;-71
2023/04/18 07:36:48;;;;;;;9.10;3.53;;;9.40;99.90;;;;;;5037728;28;20047;-69
2023/04/18 07:39:13;;;;;;;9.05;3.80;;;9.40;99.90;;;;;;5034038;28;20140;-69
2023/04/18 07:41:39;;;;;;;9.52;4.22;;;9.40;99.90;;;;;;5033649;28;20065;-71
2023/04/18 07:44:04;;;;;;;6.82;3.38;;;9.30;99.90;;;;;;5034477;28;20071;-70
2023/04/18 07:46:36;;;;;;;8.77;3.97;;;9.30;99.90;;;;;;5037406;28;20044;-69
2023/04/18 07:49:02;;;;;;;7.50;3.50;;;9.30;99.90;;;;;;5038730;28;20568;-69
2023/04/18 07:51:30;;;;;;;6.68;3.47;;;9.30;99.90;;;;;;5036041;28;20170;-71
2023/04/18 07:53:59;;;;;;;13.27;4.03;;;9.40;99.90;;;;;;5040274;28;20037;-72
2023/04/18 07:56:28;;;;;;;9.48;3.80;;;9.50;99.90;;;;;;5037400;28;20037;-70
2023/04/18 07:58:54;;;;;;;8.65;3.90;;;9.60;99.90;;;;;;5031299;28;20465;-70
2023/04/18 08:01:23;;;;;;;8.27;3.67;;;9.70;99.90;;;;;;5034534;28;20036;-70
2023/04/18 08:03:49;;;;;;;6.78;3.35;;;9.80;99.90;;;;;;5037417;28;20048;-69
2023/04/18 08:06:15;;;;;;;8.30;4.10;;;9.90;99.90;;;;;;5033701;28;20033;-72
2023/04/18 08:08:47;;;;;;;6.85;3.30;;;10.20;99.90;;;;;;5037757;28;20706;-70
2023/04/18 08:11:16;;;;;;;9.38;3.10;;;10.50;99.90;;;;;;5038323;28;20037;-71
2023/04/18 08:13:41;;;;;;;7.82;3.42;;;10.70;99.90;;;;;;5042226;28;20625;-71
2023/04/18 08:16:07;;;;;;;6.30;3.30;;;10.90;99.90;;;;;;5038517;28;20048;-72
2023/04/18 08:18:34;;;;;;;6.13;3.10;;;11.00;99.90;;;;;;5037729;28;20778;-71
2023/04/18 08:20:59;;;;;;;7.60;2.83;;;11.00;99.90;;;;;;5040334;28;20104;-70
2023/04/18 08:23:25;;;;;;;5.30;2.80;;;11.00;99.90;;;;;;5040993;28;20144;-71
2023/04/18 08:25:51;;;;;;;7.90;2.47;;;11.30;99.90;;;;;;5039114;28;20032;-71
2023/04/18 08:28:16;;;;;;;6.60;3.08;;;11.50;99.90;;;;;;5040619;28;20627;-68
2023/04/18 08:30:42;;;;;;;5.32;2.63;;;11.70;99.90;;;;;;5039382;28;20124;-70
2023/04/18 08:33:08;;;;;;;8.88;2.83;;;11.80;99.90;;;;;;5040874;28;20897;-69
2023/04/18 08:35:34;;;;;;;4.75;2.75;;;11.80;99.90;;;;;;5043006;28;20046;-70
2023/04/18 08:38:00;;;;;;;6.78;2.85;;;12.00;99.90;;;;;;5040303;28;20020;-71
2023/04/18 08:40:26;;;;;;;6.82;2.75;;;12.00;99.90;;;;;;5044026;28;20044;-70
2023/04/18 08:42:52;;;;;;;7.85;3.10;;;12.00;99.90;;;;;;5038184;28;20038;-70
2023/04/18 08:45:18;;;;;;;5.43;3.00;;;11.90;99.90;;;;;;5041039;28;20099;-72
2023/04/18 08:47:50;;;;;;;4.97;2.58;;;11.70;99.90;;;;;;5034696;28;20119;-72
2023/04/18 08:50:17;;;;;;;8.40;3.20;;;11.80;99.90;;;;;;5041723;28;20044;-70
2023/04/18 08:52:51;;;;;;;5.10;2.95;;;11.90;99.90;;;;;;5036802;28;20565;-71
2023/04/18 08:55:17;;;;;;;8.02;2.92;;;11.80;99.90;;;;;;5036963;28;20046;-69
2023/04/18 08:57:43;;;;;;;6.20;2.25;;;12.00;99.90;;;;;;5036582;28;20035;-71
2023/04/18 09:00:10;;;;;;;4.32;2.25;;;12.10;99.90;;;;;;5038683;28;20041;-71
2023/04/18 09:02:41;;;;;;;7.03;2.58;;;12.10;99.90;;;;;;5038764;28;20127;-71
2023/04/18 09:05:12;;;;;;;4.93;2.42;;;12.10;99.90;;;;;;5031808;28;20733;-69
2023/04/18 09:07:43;;;;;;;5.40;2.10;;;12.20;99.90;;;;;;5041851;28;20037;-71
2023/04/18 09:10:10;;;;;;;7.07;2.50;;;12.40;99.90;;;;;;5037438;28;20086;-71
2023/04/18 09:12:54;;;;;;;4.22;1.88;;;12.70;99.90;;;;;;5045355;28;20144;-70
2023/04/18 09:15:22;;;;;;;5.80;3.08;;;12.80;99.90;;;;;;5030478;28;20811;-71
2023/04/18 09:17:50;;;;;;;4.68;2.17;;;12.80;99.90;;;;;;5035085;28;20065;-71
2023/04/18 09:20:33;;;;;;;5.50;2.20;;;12.90;99.90;;;;;;5040717;28;20043;-69
2023/04/18 09:22:59;;;;;;;6.50;2.25;;;12.80;99.90;;;;;;5025741;28;20045;-71
2023/04/18 09:25:34;;;;;;;4.70;2.22;;;12.80;99.90;;;;;;5035839;28;20307;-69
2023/04/18 09:28:04;;;;;;;5.53;1.98;;;13.10;99.90;;;;;;5040074;28;20041;-69
2023/04/18 09:30:39;;;;;;;2.90;1.48;;;13.20;99.90;;;;;;5039326;28;20040;-71
2023/04/18 09:33:08;;;;;;;3.72;1.73;;;12.90;99.90;;;;;;5039670;28;20045;-70
2023/04/18 09:35:35;;;;;;;3.85;1.88;;;12.80;99.90;;;;;;5037438;28;20032;-68
2023/04/18 09:38:01;;;;;;;6.00;1.83;;;12.70;99.90;;;;;;5039620;28;20041;-70
2023/04/18 09:40:27;;;;;;;3.10;1.95;;;12.50;99.90;;;;;;5036659;28;20528;-70
2023/04/18 09:42:53;;;;;;;3.45;1.80;;;12.50;99.90;;;;;;5036472;28;20056;-71
2023/04/18 09:45:22;;;;;;;3.15;1.58;;;12.60;99.90;;;;;;5035758;28;20130;-71
2023/04/18 09:47:48;;;;;;;4.10;1.88;;;12.60;99.90;;;;;;5035407;28;20052;-71
2023/04/18 09:50:16;;;;;;;3.03;1.70;;;12.80;99.90;;;;;;5034352;28;20449;-71
2023/04/18 09:52:48;;;;;;;4.18;1.65;;;12.80;99.90;;;;;;5034547;28;20052;-70
2023/04/18 09:55:18;;;;;;;4.18;1.88;;;12.80;99.90;;;;;;5034109;28;20067;-71
2023/04/18 09:57:46;;;;;;;4.68;2.10;;;12.80;99.90;;;;;;5032628;28;20103;-70
2023/04/18 10:00:20;;;;;;;3.50;1.98;;;12.70;99.90;;;;;;5030813;28;20053;-71
2023/04/18 10:02:55;;;;;;;3.88;1.40;;;12.70;99.90;;;;;;5041775;28;20068;-69
2023/04/18 10:05:29;;;;;;;2.97;1.55;;;12.60;99.90;;;;;;5034028;28;20040;-70
2023/04/18 10:07:55;;;;;;;3.40;1.55;;;12.60;99.90;;;;;;5033444;28;20064;-69
2023/04/18 10:10:22;;;;;;;4.70;1.92;;;12.70;99.90;;;;;;5036678;28;20043;-72
2023/04/18 10:12:49;;;;;;;2.85;1.50;;;12.80;99.90;;;;;;5031296;28;20139;-70
2023/04/18 10:15:16;;;;;;;4.20;1.45;;;12.80;99.90;;;;;;5031844;28;20037;-70
2023/04/18 10:17:44;;;;;;;1.60;1.02;;;13.00;99.90;;;;;;5034092;28;20076;-69
2023/04/18 10:20:16;;;;;;;4.95;1.17;;;13.10;99.90;;;;;;5031653;28;20041;-69
2023/04/18 10:22:42;;;;;;;5.50;1.95;;;13.10;99.90;;;;;;5029143;28;20041;-69
2023/04/18 10:25:08;;;;;;;2.25;1.17;;;13.20;99.90;;;;;;5054094;28;20025;-71
2023/04/18 10:27:54;;;;;;;4.88;1.75;;;13.20;99.90;;;;;;5033171;28;20104;-71
2023/04/18 10:30:39;;;;;;;7.82;2.42;;;13.00;99.90;;;;;;5040887;28;20043;-71
2023/04/18 10:33:31;;;;;;;3.15;1.50;;;12.90;99.90;;;;;;5035113;28;20052;-71
2023/04/18 10:36:12;;;;;;;4.38;1.90;;;12.90;99.90;;;;;;5038416;28;20025;-70
2023/04/18 10:38:49;;;;;;;2.72;1.35;;;13.00;99.90;;;;;;5039224;28;20084;-71
2023/04/18 10:41:24;;;;;;;2.92;1.45;;;13.00;99.90;;;;;;5034480;28;20024;-73
2023/04/18 10:44:11;;;;;;;4.10;1.83;;;13.10;99.90;;;;;;5033493;28;20047;-69
2023/04/18 10:46:52;;;;;;;3.45;1.50;;;12.90;99.90;;;;;;5034947;28;20519;-70
2023/04/18 10:49:18;;;;;;;;;;;12.70;99.90;;;;;;5034936;28;20052;-72
2023/04/18 10:51:50;;;;;;;3.30;1.45;;;12.50;99.90;;;;;;5037444;28;19917;-69
2023/04/18 10:54:31;;;;;;;5.95;1.75;;;12.40;99.90;;;;;;5037828;28;20037;-70
2023/04/18 10:57:02;;;;;;;5.63;1.98;;;12.30;99.90;;;;;;5035753;28;20052;-70
2023/04/18 10:59:32;;;;;;;4.60;1.95;;;12.30;99.90;;;;;;5038512;28;20781;-71
2023/04/18 11:02:16;;;;;;;4.93;1.98;;;12.40;99.90;;;;;;5038954;28;20037;-71
2023/04/18 11:04:49;;;;;;;3.97;1.95;;;12.50;99.90;;;;;;5037552;28;20792;-70
2023/04/18 11:07:14;;;;;;;3.50;2.03;;;12.70;99.90;;;;;;5039563;28;20063;-70
2023/04/18 11:09:40;;;;;;;6.25;2.40;;;12.70;99.90;;;;;;5032315;28;20064;-70
2023/04/18 11:12:08;;;;;;;3.53;2.20;;;12.70;99.90;;;;;;5037535;28;20028;-70
2023/04/18 11:14:45;;;;;;;5.28;2.30;;;12.50;99.90;;;;;;5031827;28;20074;-69
2023/04/18 11:17:21;;;;;;;3.03;2.13;;;12.50;99.90;;;;;;5036314;28;20124;-71
2023/04/18 11:19:47;;;;;;;6.05;2.17;;;12.40;99.90;;;;;;5032074;28;20037;-71
2023/04/18 11:22:16;;;;;;;4.57;1.95;;;12.30;99.90;;;;;;5039902;28;20382;-71
2023/04/18 11:24:43;;;;;;;4.18;1.83;;;12.10;99.90;;;;;;5037647;28;20061;-70
2023/04/18 11:27:09;;;;;;;3.22;1.77;;;12.40;99.90;;;;;;5038730;28;20041;-69
2023/04/18 11:29:35;;;;;;;4.60;2.00;;;12.70;99.90;;;;;;5036293;28;20111;-69
2023/04/18 11:32:04;;;;;;;2.88;1.30;;;13.00;99.90;;;;;;5035065;28;20745;-71
2023/04/18 11:34:30;;;;;;;3.08;1.60;;;13.20;99.90;;;;;;5033401;28;20033;-69
2023/04/18 11:36:56;;;;;;;2.67;1.38;;;13.30;99.90;;;;;;5037441;28;20142;-72
2023/04/18 11:39:22;;;;;;;2.47;1.45;;;13.30;99.90;;;;;;5038337;28;20554;-71
2023/04/18 11:41:51;;;;;;;3.17;1.65;;;13.20;99.90;;;;;;5033553;28;20549;-71
2023/04/18 11:44:26;;;;;;;3.33;1.75;;;13.20;99.90;;;;;;5037632;28;20037;-70
2023/04/18 11:46:52;;;;;;;7.03;2.10;;;13.20;99.90;;;;;;5040863;28;20049;-71
2023/04/18 11:49:25;;;;;;;3.42;1.73;;;13.20;99.90;;;;;;5040397;28;20056;-71
2023/04/18 11:51:52;;;;;;;3.15;1.70;;;13.30;99.90;;;;;;5041656;28;20080;-72
2023/04/18 11:54:43;;;;;;;3.95;1.90;;;13.30;99.90;;;;;;5034943;28;20326;-71
2023/04/18 11:57:28;;;;;;;4.03;1.90;;;13.30;99.90;;;;;;5042894;28;20043;-70
2023/04/18 11:59:56;;;;;;;4.45;2.22;;;13.40;99.90;;;;;;5042153;28;20048;-70
2023/04/18 12:02:26;;;;;;;5.32;2.60;;;13.40;99.90;;;;;;5042136;28;20048;-71
2023/04/18 12:05:01;;;;;;;4.57;2.20;;;13.40;99.90;;;;;;5041311;28;20064;-70
2023/04/18 12:07:37;;;;;;;4.47;2.45;;;13.40;99.90;;;;;;5040281;28;20040;-72
2023/04/18 12:10:04;;;;;;;4.80;2.38;;;13.40;99.90;;;;;;5041618;28;20045;-71
2023/04/18 12:12:30;;;;;;;4.10;2.22;;;13.30;99.90;;;;;;5040779;28;20056;-71
2023/04/18 12:15:13;;;;;;;5.47;2.33;;;13.40;99.90;;;;;;5039634;28;20138;-70
2023/04/18 12:17:42;;;;;;;6.57;3.17;;;13.60;99.90;;;;;;5038736;28;20516;-70
2023/04/18 12:20:08;;;;;;;4.85;2.50;;;13.60;99.90;;;;;;5040836;28;20037;-72
2023/04/18 12:22:51;;;;;;;6.20;3.53;;;13.50;99.90;;;;;;5042994;28;20029;-72
2023/04/18 12:25:21;;;;;;;5.85;2.83;;;13.40;99.90;;;;;;5031366;28;20068;-69
2023/04/18 12:27:57;;;;;;;5.47;2.75;;;13.40;99.90;;;;;;5037698;28;20462;-69
2023/04/18 12:30:33;;;;;;;6.57;2.53;;;13.20;99.90;;;;;;5035161;28;20090;-70
2023/04/18 12:33:01;;;;;;;5.80;2.80;;;13.20;99.90;;;;;;5044420;28;20048;-70
2023/04/18 12:35:31;;;;;;;5.28;2.47;;;13.30;99.90;;;;;;5037248;28;20063;-71
2023/04/18 12:38:01;;;;;;;5.03;2.63;;;13.30;99.90;;;;;;5042293;28;20033;-70
2023/04/18 12:40:27;;;;;;;6.88;2.67;;;13.30;99.90;;;;;;5043083;28;20060;-70
2023/04/18 12:42:55;;;;;;;7.53;2.78;;;13.30;99.90;;;;;;5045521;28;20045;-70
2023/04/18 12:45:22;;;;;;;7.40;2.75;;;13.30;99.90;;;;;;5041708;28;20048;-70
2023/04/18 12:47:49;;;;;;;6.35;2.80;;;13.50;99.90;;;;;;5044129;28;20040;-71
2023/04/18 12:50:20;;;;;;;6.07;2.90;;;13.50;99.90;;;;;;5044117;28;20068;-73
2023/04/18 12:52:46;;;;;;;10.13;3.55;;;13.70;99.90;;;;;;5038072;28;20044;-69
2023/04/18 12:55:12;;;;;;;6.10;3.20;;;13.70;99.90;;;;;;5038401;28;20037;-71